SPKRZ EPWA-EPRZ
Flight info
| Callsign | SPKRZ |
|---|---|
| Flight time | N/A |
| Altitude | 19000 |
| Route | XIMBA N195 VELAX |
| Aircraft | FA50/M-VGDW/C |
Departure
| Time | 2026-04-30 15:06 |
|---|---|
| Airport | Warsaw Chopin Airport (EPWA) |
Arrival
| Time | N/A |
|---|---|
| Airport | Rzeszów-Jasionka Airport (EPRZ) |
| Time | Latitude | Longitude | Altitude | Speed | Heading |
|---|---|---|---|---|---|
| 2026-04-30 14:52 | 52.17540 | 20.96381 | 333 ft | 0 kts | 242° |
| 2026-04-30 15:00 | 52.17540 | 20.96380 | 333 ft | 0 kts | 242° |
| 2026-04-30 15:01 | 52.17520 | 20.96321 | 333 ft | 2 kts | 242° |
| 2026-04-30 15:01 | 52.17517 | 20.96312 | 333 ft | 0 kts | 242° |
| 2026-04-30 15:01 | 52.17442 | 20.96350 | 334 ft | 9 kts | 149° |
| 2026-04-30 15:02 | 52.17382 | 20.96407 | 334 ft | 9 kts | 149° |
| 2026-04-30 15:02 | 52.17306 | 20.96472 | 333 ft | 14 kts | 151° |
| 2026-04-30 15:03 | 52.16967 | 20.96764 | 330 ft | 21 kts | 152° |
| 2026-04-30 15:03 | 52.16694 | 20.97005 | 333 ft | 21 kts | 148° |
| 2026-04-30 15:04 | 52.16569 | 20.97387 | 336 ft | 18 kts | 115° |
| 2026-04-30 15:04 | 52.16368 | 20.97773 | 333 ft | 16 kts | 205° |
| 2026-04-30 15:05 | 52.16448 | 20.97139 | 336 ft | 78 kts | 298° |
| 2026-04-30 15:06 | 52.17185 | 20.94354 | 1790 ft | 150 kts | 295° |
| 2026-04-30 15:06 | 52.18027 | 20.90996 | 3550 ft | 184 kts | 295° |
| 2026-04-30 15:07 | 52.18030 | 20.86502 | 5568 ft | 224 kts | 254° |
| 2026-04-30 15:07 | 52.17068 | 20.81281 | 7736 ft | 250 kts | 261° |
| 2026-04-30 15:08 | 52.16291 | 20.75676 | 10042 ft | 265 kts | 264° |
| 2026-04-30 15:08 | 52.13335 | 20.67976 | 13336 ft | 299 kts | 218° |
| 2026-04-30 15:09 | 52.10040 | 20.63868 | 15923 ft | 294 kts | 219° |
| 2026-04-30 15:09 | 52.06334 | 20.59193 | 16174 ft | 379 kts | 219° |
| 2026-04-30 15:10 | 52.02039 | 20.53784 | 18288 ft | 399 kts | 219° |
| 2026-04-30 15:11 | 51.91182 | 20.49172 | 19360 ft | 421 kts | 149° |
| 2026-04-30 15:11 | 51.87391 | 20.55293 | 19369 ft | 387 kts | 115° |
| 2026-04-30 15:12 | 51.82122 | 20.65473 | 19353 ft | 398 kts | 125° |
| 2026-04-30 15:13 | 51.78310 | 20.71968 | 19354 ft | 397 kts | 124° |
| 2026-04-30 15:14 | 51.76068 | 20.87879 | 19353 ft | 363 kts | 87° |
| 2026-04-30 15:14 | 51.75538 | 20.99992 | 19350 ft | 364 kts | 87° |
| 2026-04-30 15:16 | 51.73130 | 21.20060 | 19356 ft | 384 kts | 110° |
| 2026-04-30 15:17 | 51.68114 | 21.35173 | 19357 ft | 383 kts | 110° |
| 2026-04-30 15:18 | 51.58126 | 21.49951 | 19360 ft | 410 kts | 142° |
| 2026-04-30 15:19 | 51.50766 | 21.56997 | 19370 ft | 408 kts | 142° |